sensor_id;sensor_type;location;lat;lon;timestamp;pressure;altitude;pressure_sealevel;temperature;humidity
49945;BME280;35838;49.134;9.212;2022-10-16T00:00:31;99684.38;;;16.58;93.53
49945;BME280;35838;49.134;9.212;2022-10-16T00:02:03;99683.59;;;16.56;93.41
49945;BME280;35838;49.134;9.212;2022-10-16T00:03:37;99690.50;;;16.58;93.85
49945;BME280;35838;49.134;9.212;2022-10-16T00:05:09;99683.75;;;16.51;93.82
49945;BME280;35838;49.134;9.212;2022-10-16T00:06:43;99685.34;;;16.55;93.56
49945;BME280;35838;49.134;9.212;2022-10-16T00:08:17;99685.25;;;16.58;93.63
49945;BME280;35838;49.134;9.212;2022-10-16T00:09:54;99679.06;;;16.61;93.54
49945;BME280;35838;49.134;9.212;2022-10-16T00:11:30;99672.66;;;16.70;92.94
49945;BME280;35838;49.134;9.212;2022-10-16T00:13:07;99670.84;;;16.72;92.59
49945;BME280;35838;49.134;9.212;2022-10-16T00:14:39;99668.19;;;16.73;92.70
49945;BME280;35838;49.134;9.212;2022-10-16T00:16:15;99663.78;;;16.74;92.45
49945;BME280;35838;49.134;9.212;2022-10-16T00:17:49;99665.72;;;16.69;92.82
49945;BME280;35838;49.134;9.212;2022-10-16T00:19:20;99667.44;;;16.70;93.06
49945;BME280;35838;49.134;9.212;2022-10-16T00:20:55;99658.78;;;16.66;93.03
49945;BME280;35838;49.134;9.212;2022-10-16T00:22:27;99660.09;;;16.53;93.49
49945;BME280;35838;49.134;9.212;2022-10-16T00:24:03;99672.31;;;16.54;94.24
49945;BME280;35838;49.134;9.212;2022-10-16T00:25:41;99673.66;;;16.39;94.87
49945;BME280;35838;49.134;9.212;2022-10-16T00:27:15;99670.03;;;16.43;94.97
49945;BME280;35838;49.134;9.212;2022-10-16T00:28:51;99672.50;;;16.48;94.83
49945;BME280;35838;49.134;9.212;2022-10-16T00:30:23;99675.97;;;16.48;94.92
49945;BME280;35838;49.134;9.212;2022-10-16T00:31:58;99673.72;;;16.37;94.35
49945;BME280;35838;49.134;9.212;2022-10-16T00:33:32;99682.66;;;16.30;94.63
49945;BME280;35838;49.134;9.212;2022-10-16T00:35:07;99675.56;;;16.34;95.05
49945;BME280;35838;49.134;9.212;2022-10-16T00:36:41;99670.22;;;16.37;95.18
49945;BME280;35838;49.134;9.212;2022-10-16T00:38:15;99673.44;;;16.45;95.31
49945;BME280;35838;49.134;9.212;2022-10-16T00:39:46;99669.91;;;16.46;95.77
49945;BME280;35838;49.134;9.212;2022-10-16T00:41:23;99675.16;;;16.46;95.19
49945;BME280;35838;49.134;9.212;2022-10-16T00:42:58;99689.16;;;16.45;94.26
49945;BME280;35838;49.134;9.212;2022-10-16T00:44:48;99687.34;;;16.47;93.37
49945;BME280;35838;49.134;9.212;2022-10-16T00:46:25;99690.22;;;16.39;93.43
49945;BME280;35838;49.134;9.212;2022-10-16T00:47:59;99683.44;;;16.32;93.84
49945;BME280;35838;49.134;9.212;2022-10-16T00:49:33;99684.69;;;16.20;94.88
49945;BME280;35838;49.134;9.212;2022-10-16T00:51:08;99682.34;;;16.11;96.36
49945;BME280;35838;49.134;9.212;2022-10-16T00:52:46;99679.16;;;16.01;97.06
49945;BME280;35838;49.134;9.212;2022-10-16T00:54:23;99688.75;;;16.01;97.38
49945;BME280;35838;49.134;9.212;2022-10-16T00:55:58;99684.47;;;15.98;97.73
49945;BME280;35838;49.134;9.212;2022-10-16T00:57:35;99676.69;;;15.96;97.97
49945;BME280;35838;49.134;9.212;2022-10-16T00:59:14;99681.59;;;16.07;98.09
49945;BME280;35838;49.134;9.212;2022-10-16T01:00:49;99678.69;;;16.17;97.62
49945;BME280;35838;49.134;9.212;2022-10-16T01:02:23;99685.50;;;16.22;97.11
49945;BME280;35838;49.134;9.212;2022-10-16T01:03:57;99680.88;;;16.31;96.54
49945;BME280;35838;49.134;9.212;2022-10-16T01:05:35;99683.31;;;16.37;95.99
49945;BME280;35838;49.134;9.212;2022-10-16T01:07:16;99680.50;;;16.43;95.53
49945;BME280;35838;49.134;9.212;2022-10-16T01:09:09;99676.88;;;16.47;95.16
49945;BME280;35838;49.134;9.212;2022-10-16T01:10:51;99677.63;;;16.51;94.58
49945;BME280;35838;49.134;9.212;2022-10-16T01:12:38;99680.16;;;16.54;94.13
49945;BME280;35838;49.134;9.212;2022-10-16T01:14:21;99674.78;;;16.58;93.77
49945;BME280;35838;49.134;9.212;2022-10-16T01:16:01;99686.91;;;16.61;93.12
49945;BME280;35838;49.134;9.212;2022-10-16T01:17:43;99687.81;;;16.60;92.98
49945;BME280;35838;49.134;9.212;2022-10-16T01:19:29;99685.25;;;16.58;93.01
49945;BME280;35838;49.134;9.212;2022-10-16T01:21:12;99677.31;;;16.62;92.81
49945;BME280;35838;49.134;9.212;2022-10-16T01:22:55;99678.00;;;16.67;92.53
49945;BME280;35838;49.134;9.212;2022-10-16T01:24:38;99671.78;;;16.69;91.74
49945;BME280;35838;49.134;9.212;2022-10-16T01:26:28;99670.00;;;16.71;91.63
49945;BME280;35838;49.134;9.212;2022-10-16T01:28:09;99665.56;;;16.73;91.60
49945;BME280;35838;49.134;9.212;2022-10-16T01:29:48;99663.78;;;16.74;91.13
49945;BME280;35838;49.134;9.212;2022-10-16T01:31:26;99667.22;;;16.76;91.43
49945;BME280;35838;49.134;9.212;2022-10-16T01:33:02;99675.06;;;16.76;91.27
49945;BME280;35838;49.134;9.212;2022-10-16T01:34:43;99675.00;;;16.77;91.17
49945;BME280;35838;49.134;9.212;2022-10-16T01:36:24;99684.69;;;16.75;91.29
49945;BME280;35838;49.134;9.212;2022-10-16T01:38:03;99688.47;;;16.67;90.49
49945;BME280;35838;49.134;9.212;2022-10-16T01:39:39;99682.34;;;16.68;91.12
49945;BME280;35838;49.134;9.212;2022-10-16T01:41:19;99686.56;;;16.72;91.04
49945;BME280;35838;49.134;9.212;2022-10-16T01:42:59;99688.25;;;16.73;90.85
49945;BME280;35838;49.134;9.212;2022-10-16T01:44:38;99688.47;;;16.67;90.72
49945;BME280;35838;49.134;9.212;2022-10-16T01:46:13;99688.78;;;16.57;91.05
49945;BME280;35838;49.134;9.212;2022-10-16T01:47:48;99690.69;;;16.52;91.43
49945;BME280;35838;49.134;9.212;2022-10-16T01:49:21;99693.06;;;16.60;91.98
49945;BME280;35838;49.134;9.212;2022-10-16T01:51:01;99700.97;;;16.58;91.56
49945;BME280;35838;49.134;9.212;2022-10-16T01:52:37;99694.00;;;16.57;91.86
49945;BME280;35838;49.134;9.212;2022-10-16T01:54:14;99697.44;;;16.59;91.89
49945;BME280;35838;49.134;9.212;2022-10-16T01:55:52;99700.75;;;16.65;91.69
49945;BME280;35838;49.134;9.212;2022-10-16T01:57:29;99692.69;;;16.71;91.45
49945;BME280;35838;49.134;9.212;2022-10-16T01:59:06;99692.50;;;16.77;91.33
49945;BME280;35838;49.134;9.212;2022-10-16T02:00:45;99689.03;;;16.76;91.09
49945;BME280;35838;49.134;9.212;2022-10-16T02:02:19;99686.38;;;16.78;91.05
49945;BME280;35838;49.134;9.212;2022-10-16T02:03:57;99686.38;;;16.78;90.91
49945;BME280;35838;49.134;9.212;2022-10-16T02:05:37;99679.28;;;16.80;90.52
49945;BME280;35838;49.134;9.212;2022-10-16T02:07:13;99684.53;;;16.80;90.56
49945;BME280;35838;49.134;9.212;2022-10-16T02:08:45;99673.97;;;16.83;90.47
49945;BME280;35838;49.134;9.212;2022-10-16T02:10:20;99673.97;;;16.83;90.25
49945;BME280;35838;49.134;9.212;2022-10-16T02:11:56;99682.63;;;16.85;90.01
49945;BME280;35838;49.134;9.212;2022-10-16T02:13:37;99675.59;;;16.87;90.02
49945;BME280;35838;49.134;9.212;2022-10-16T02:15:12;99669.47;;;16.87;90.03
49945;BME280;35838;49.134;9.212;2022-10-16T02:16:46;99682.50;;;16.88;89.67
49945;BME280;35838;49.134;9.212;2022-10-16T02:18:21;99684.22;;;16.89;89.52
49945;BME280;35838;49.134;9.212;2022-10-16T02:19:58;99699.00;;;16.92;90.62
49945;BME280;35838;49.134;9.212;2022-10-16T02:21:36;99691.31;;;16.87;92.30
49945;BME280;35838;49.134;9.212;2022-10-16T02:23:14;99680.03;;;16.84;93.40
49945;BME280;35838;49.134;9.212;2022-10-16T02:24:54;99691.50;;;16.81;93.57
49945;BME280;35838;49.134;9.212;2022-10-16T02:26:35;99692.53;;;16.75;93.80
49945;BME280;35838;49.134;9.212;2022-10-16T02:28:16;99689.16;;;16.72;94.20
49945;BME280;35838;49.134;9.212;2022-10-16T02:29:55;99697.09;;;16.70;94.67
49945;BME280;35838;49.134;9.212;2022-10-16T02:31:35;99696.34;;;16.67;94.03
49945;BME280;35838;49.134;9.212;2022-10-16T02:33:15;99692.00;;;16.66;93.35
49945;BME280;35838;49.134;9.212;2022-10-16T02:34:51;99696.44;;;16.64;93.26
49945;BME280;35838;49.134;9.212;2022-10-16T02:36:25;99700.25;;;16.53;93.25
49945;BME280;35838;49.134;9.212;2022-10-16T02:38:01;99701.47;;;16.43;93.24
49945;BME280;35838;49.134;9.212;2022-10-16T02:39:35;99691.97;;;16.39;93.92
49945;BME280;35838;49.134;9.212;2022-10-16T02:41:07;99691.84;;;16.43;93.97
49945;BME280;35838;49.134;9.212;2022-10-16T02:42:41;99691.06;;;16.40;94.07
49945;BME280;35838;49.134;9.212;2022-10-16T02:44:13;99692.13;;;16.34;94.29
49945;BME280;35838;49.134;9.212;2022-10-16T02:45:47;99691.06;;;16.40;94.40
49945;BME280;35838;49.134;9.212;2022-10-16T02:47:21;99695.16;;;16.49;94.03
49945;BME280;35838;49.134;9.212;2022-10-16T02:48:55;99686.31;;;16.53;93.73
49945;BME280;35838;49.134;9.212;2022-10-16T02:50:29;99694.09;;;16.54;93.44
49945;BME280;35838;49.134;9.212;2022-10-16T02:52:03;99691.34;;;16.59;93.08
49945;BME280;35838;49.134;9.212;2022-10-16T02:53:37;99685.25;;;16.58;93.01
49945;BME280;35838;49.134;9.212;2022-10-16T02:55:09;99693.81;;;16.64;92.79
49945;BME280;35838;49.134;9.212;2022-10-16T02:56:43;99692.00;;;16.66;92.82
49945;BME280;35838;49.134;9.212;2022-10-16T02:58:14;99699.47;;;16.51;92.64
49945;BME280;35838;49.134;9.212;2022-10-16T02:59:48;99699.25;;;16.57;92.65
49945;BME280;35838;49.134;9.212;2022-10-16T03:01:22;99699.94;;;16.63;92.72
49945;BME280;35838;49.134;9.212;2022-10-16T03:02:57;99700.75;;;16.65;92.52
49945;BME280;35838;49.134;9.212;2022-10-16T03:04:31;99701.56;;;16.67;92.26
49945;BME280;35838;49.134;9.212;2022-10-16T03:06:05;99705.78;;;16.71;91.96
49945;BME280;35838;49.134;9.212;2022-10-16T03:07:39;99704.94;;;16.70;91.83
49945;BME280;35838;49.134;9.212;2022-10-16T03:09:14;99707.63;;;16.69;91.80
49945;BME280;35838;49.134;9.212;2022-10-16T03:10:48;99702.34;;;16.70;91.83
49945;BME280;35838;49.134;9.212;2022-10-16T03:12:22;99700.56;;;16.71;91.65
49945;BME280;35838;49.134;9.212;2022-10-16T03:13:56;99707.50;;;16.72;91.55
49945;BME280;35838;49.134;9.212;2022-10-16T03:15:27;99704.00;;;16.73;91.84
49945;BME280;35838;49.134;9.212;2022-10-16T03:17:01;99702.13;;;16.76;91.68
49945;BME280;35838;49.134;9.212;2022-10-16T03:18:35;99695.22;;;16.74;91.68
49945;BME280;35838;49.134;9.212;2022-10-16T03:20:12;99700.25;;;16.80;91.52
49945;BME280;35838;49.134;9.212;2022-10-16T03:21:44;99701.13;;;16.81;91.84
49945;BME280;35838;49.134;9.212;2022-10-16T03:23:18;99702.09;;;16.78;91.98
49945;BME280;35838;49.134;9.212;2022-10-16T03:24:52;99703.91;;;16.76;92.26
49945;BME280;35838;49.134;9.212;2022-10-16T03:26:26;99707.44;;;16.75;92.46
49945;BME280;35838;49.134;9.212;2022-10-16T03:27:57;99710.84;;;16.77;92.22
49945;BME280;35838;49.134;9.212;2022-10-16T03:29:31;99707.72;;;16.66;91.79
49945;BME280;35838;49.134;9.212;2022-10-16T03:31:05;99713.97;;;16.62;92.06
49945;BME280;35838;49.134;9.212;2022-10-16T03:32:39;99706.22;;;16.58;92.05
49945;BME280;35838;49.134;9.212;2022-10-16T03:34:11;99700.75;;;16.65;91.92
49945;BME280;35838;49.134;9.212;2022-10-16T03:35:53;99710.25;;;16.69;91.70
49945;BME280;35838;49.134;9.212;2022-10-16T03:37:28;99710.44;;;16.63;91.63
49945;BME280;35838;49.134;9.212;2022-10-16T03:39:02;99705.59;;;16.50;92.21
49945;BME280;35838;49.134;9.212;2022-10-16T03:40:33;99709.28;;;16.44;92.99
49945;BME280;35838;49.134;9.212;2022-10-16T03:42:07;99706.66;;;16.44;93.38
49945;BME280;35838;49.134;9.212;2022-10-16T03:43:42;99716.91;;;16.52;93.21
49945;BME280;35838;49.134;9.212;2022-10-16T03:45:16;99710.78;;;16.52;93.00
49945;BME280;35838;49.134;9.212;2022-10-16T03:46:50;99706.72;;;16.43;92.76
49945;BME280;35838;49.134;9.212;2022-10-16T03:48:24;99712.03;;;16.40;93.31
49945;BME280;35838;49.134;9.212;2022-10-16T03:49:58;99703.94;;;16.48;93.45
49945;BME280;35838;49.134;9.212;2022-10-16T03:51:35;99711.59;;;16.54;93.01
49945;BME280;35838;49.134;9.212;2022-10-16T03:53:09;99718.69;;;16.50;93.17
49945;BME280;35838;49.134;9.212;2022-10-16T03:54:40;99712.56;;;16.51;93.31
49945;BME280;35838;49.134;9.212;2022-10-16T03:56:14;99716.78;;;16.55;93.22
49945;BME280;35838;49.134;9.212;2022-10-16T03:57:48;99706.16;;;16.60;93.44
49945;BME280;35838;49.134;9.212;2022-10-16T03:59:22;99708.78;;;16.60;93.24
49945;BME280;35838;49.134;9.212;2022-10-16T04:00:56;99711.44;;;16.58;93.37
49945;BME280;35838;49.134;9.212;2022-10-16T04:04:09;99707.34;;;16.50;93.46
49945;BME280;35838;49.134;9.212;2022-10-16T04:05:43;99703.31;;;16.39;93.34
49945;BME280;35838;49.134;9.212;2022-10-16T04:07:19;99697.91;;;16.44;93.63
49945;BME280;35838;49.134;9.212;2022-10-16T04:08:53;99701.34;;;16.46;93.79
49945;BME280;35838;49.134;9.212;2022-10-16T04:10:27;99701.25;;;16.49;93.63
49945;BME280;35838;49.134;9.212;2022-10-16T04:12:01;99705.47;;;16.53;93.06
49945;BME280;35838;49.134;9.212;2022-10-16T04:13:35;99709.06;;;16.51;93.24
49945;BME280;35838;49.134;9.212;2022-10-16T04:15:08;99708.09;;;16.53;93.19
49945;BME280;35838;49.134;9.212;2022-10-16T04:16:42;99715.06;;;16.54;92.71
49945;BME280;35838;49.134;9.212;2022-10-16T04:18:16;99715.78;;;16.59;92.63
49945;BME280;35838;49.134;9.212;2022-10-16T04:19:50;99713.94;;;16.63;92.35
49945;BME280;35838;49.134;9.212;2022-10-16T04:21:24;99720.81;;;16.66;92.04
49945;BME280;35838;49.134;9.212;2022-10-16T04:23:00;99726.00;;;16.67;91.73
49945;BME280;35838;49.134;9.212;2022-10-16T04:24:34;99724.19;;;16.69;91.39
49945;BME280;35838;49.134;9.212;2022-10-16T04:26:08;99724.19;;;16.69;91.64
49945;BME280;35838;49.134;9.212;2022-10-16T04:27:43;99717.22;;;16.70;91.24
49945;BME280;35838;49.134;9.212;2022-10-16T04:29:17;99724.94;;;16.73;90.76
49945;BME280;35838;49.134;9.212;2022-10-16T04:30:51;99727.53;;;16.74;90.43
49945;BME280;35838;49.134;9.212;2022-10-16T04:32:22;99726.59;;;16.77;90.60
49945;BME280;35838;49.134;9.212;2022-10-16T04:33:56;99731.81;;;16.77;90.14
49945;BME280;35838;49.134;9.212;2022-10-16T04:35:30;99732.66;;;16.77;90.13
49945;BME280;35838;49.134;9.212;2022-10-16T04:37:05;99733.53;;;16.78;90.29
49945;BME280;35838;49.134;9.212;2022-10-16T04:38:41;99738.94;;;16.73;90.08
49945;BME280;35838;49.134;9.212;2022-10-16T04:40:15;99744.13;;;16.75;90.17
49945;BME280;35838;49.134;9.212;2022-10-16T04:41:49;99735.41;;;16.74;90.74
49945;BME280;35838;49.134;9.212;2022-10-16T04:43:23;99748.69;;;16.68;91.01
49945;BME280;35838;49.134;9.212;2022-10-16T04:44:57;99742.53;;;16.69;91.42
49945;BME280;35838;49.134;9.212;2022-10-16T04:46:31;99743.41;;;16.70;91.86
49945;BME280;35838;49.134;9.212;2022-10-16T04:48:05;99742.47;;;16.71;91.64
49945;BME280;35838;49.134;9.212;2022-10-16T04:49:36;99746.78;;;16.73;91.56
49945;BME280;35838;49.134;9.212;2022-10-16T04:51:11;99748.59;;;16.71;91.55
49945;BME280;35838;49.134;9.212;2022-10-16T04:52:44;99751.16;;;16.73;91.22
49945;BME280;35838;49.134;9.212;2022-10-16T04:54:21;99752.06;;;16.72;91.25
49945;BME280;35838;49.134;9.212;2022-10-16T04:55:55;99742.47;;;16.71;91.68
49945;BME280;35838;49.134;9.212;2022-10-16T04:57:29;99747.78;;;16.69;91.83
49945;BME280;35838;49.134;9.212;2022-10-16T04:59:04;99752.97;;;16.71;91.51
49945;BME280;35838;49.134;9.212;2022-10-16T05:00:38;99762.75;;;16.66;91.46
49945;BME280;35838;49.134;9.212;2022-10-16T05:02:12;99760.22;;;16.63;90.97
49945;BME280;35838;49.134;9.212;2022-10-16T05:03:46;99760.06;;;16.67;91.04
49945;BME280;35838;49.134;9.212;2022-10-16T05:05:20;99760.06;;;16.67;91.12
49945;BME280;35838;49.134;9.212;2022-10-16T05:06:54;99756.53;;;16.68;90.98
49945;BME280;35838;49.134;9.212;2022-10-16T05:08:25;99756.53;;;16.70;90.65
49945;BME280;35838;49.134;9.212;2022-10-16T05:10:03;99765.28;;;16.69;90.42
49945;BME280;35838;49.134;9.212;2022-10-16T05:11:37;99767.84;;;16.70;90.21
49945;BME280;35838;49.134;9.212;2022-10-16T05:13:09;99768.50;;;16.77;89.62
49945;BME280;35838;49.134;9.212;2022-10-16T05:14:43;99766.88;;;16.73;89.53
49945;BME280;35838;49.134;9.212;2022-10-16T05:16:14;99767.63;;;16.76;89.31
49945;BME280;35838;49.134;9.212;2022-10-16T05:17:52;99761.63;;;16.73;89.62
49945;BME280;35838;49.134;9.212;2022-10-16T05:19:26;99765.06;;;16.75;89.45
49945;BME280;35838;49.134;9.212;2022-10-16T05:21:00;99765.06;;;16.75;89.74
49945;BME280;35838;49.134;9.212;2022-10-16T05:22:34;99758.88;;;16.77;89.31
49945;BME280;35838;49.134;9.212;2022-10-16T05:24:08;99757.06;;;16.80;89.26
49945;BME280;35838;49.134;9.212;2022-10-16T05:25:52;99764.88;;;16.81;88.94
49945;BME280;35838;49.134;9.212;2022-10-16T05:27:26;99762.47;;;16.75;89.12
49945;BME280;35838;49.134;9.212;2022-10-16T05:29:00;99753.69;;;16.76;88.94
49945;BME280;35838;49.134;9.212;2022-10-16T05:30:34;99764.13;;;16.77;89.38
49945;BME280;35838;49.134;9.212;2022-10-16T05:32:08;99750.16;;;16.77;89.00
49945;BME280;35838;49.134;9.212;2022-10-16T05:33:42;99748.31;;;16.81;88.59
49945;BME280;35838;49.134;9.212;2022-10-16T05:35:17;99748.31;;;16.81;88.35
49945;BME280;35838;49.134;9.212;2022-10-16T05:36:51;99751.75;;;16.83;88.44
49945;BME280;35838;49.134;9.212;2022-10-16T05:38:23;99749.13;;;16.83;88.22
49945;BME280;35838;49.134;9.212;2022-10-16T05:39:57;99746.38;;;16.86;88.15
49945;BME280;35838;49.134;9.212;2022-10-16T05:41:33;99747.25;;;16.86;87.71
49945;BME280;35838;49.134;9.212;2022-10-16T05:43:08;99745.47;;;16.87;87.77
49945;BME280;35838;49.134;9.212;2022-10-16T05:44:42;99747.25;;;16.86;87.56
49945;BME280;35838;49.134;9.212;2022-10-16T05:46:16;99750.88;;;16.82;87.27
49945;BME280;35838;49.134;9.212;2022-10-16T05:47:48;99755.28;;;16.80;86.93
49945;BME280;35838;49.134;9.212;2022-10-16T05:49:22;99754.81;;;16.69;87.09
49945;BME280;35838;49.134;9.212;2022-10-16T05:50:57;99744.13;;;16.75;87.54
49945;BME280;35838;49.134;9.212;2022-10-16T05:52:29;99748.38;;;16.77;87.23
49945;BME280;35838;49.134;9.212;2022-10-16T05:54:03;99750.03;;;16.82;86.93
49945;BME280;35838;49.134;9.212;2022-10-16T05:55:37;99753.47;;;16.82;86.57
49945;BME280;35838;49.134;9.212;2022-10-16T05:57:14;99752.59;;;16.83;86.79
49945;BME280;35838;49.134;9.212;2022-10-16T05:58:48;99757.72;;;16.86;86.76
49945;BME280;35838;49.134;9.212;2022-10-16T06:00:22;99758.50;;;16.90;86.53
49945;BME280;35838;49.134;9.212;2022-10-16T06:01:56;99772.59;;;16.86;86.30
49945;BME280;35838;49.134;9.212;2022-10-16T06:03:30;99781.00;;;16.69;86.38
49945;BME280;35838;49.134;9.212;2022-10-16T06:05:01;99783.50;;;16.72;86.90
49945;BME280;35838;49.134;9.212;2022-10-16T06:06:35;99783.00;;;16.60;87.37
49945;BME280;35838;49.134;9.212;2022-10-16T06:08:10;99790.59;;;16.70;87.29
49945;BME280;35838;49.134;9.212;2022-10-16T06:09:41;99781.00;;;16.69;87.16
49945;BME280;35838;49.134;9.212;2022-10-16T06:11:17;99787.75;;;16.76;87.29
49945;BME280;35838;49.134;9.212;2022-10-16T06:12:51;99785.75;;;16.84;86.51
49945;BME280;35838;49.134;9.212;2022-10-16T06:14:26;99779.47;;;16.88;85.80
49945;BME280;35838;49.134;9.212;2022-10-16T06:16:00;99784.63;;;16.93;85.72
49945;BME280;35838;49.134;9.212;2022-10-16T06:17:32;99784.63;;;16.93;86.11
49945;BME280;35838;49.134;9.212;2022-10-16T06:19:05;99774.91;;;16.97;85.90
49945;BME280;35838;49.134;9.212;2022-10-16T06:20:40;99776.59;;;16.98;85.86
49945;BME280;35838;49.134;9.212;2022-10-16T06:22:14;99777.47;;;16.98;85.93
49945;BME280;35838;49.134;9.212;2022-10-16T06:23:48;99785.28;;;17.00;85.90
49945;BME280;35838;49.134;9.212;2022-10-16T06:25:22;99794.88;;;17.01;85.95
49945;BME280;35838;49.134;9.212;2022-10-16T06:26:56;99788.81;;;16.99;86.01
49945;BME280;35838;49.134;9.212;2022-10-16T06:28:33;99780.25;;;16.94;85.64
49945;BME280;35838;49.134;9.212;2022-10-16T06:30:08;99771.47;;;16.95;85.85
49945;BME280;35838;49.134;9.212;2022-10-16T06:31:42;99778.31;;;16.99;85.55
49945;BME280;35838;49.134;9.212;2022-10-16T06:33:16;99783.56;;;16.99;85.65
49945;BME280;35838;49.134;9.212;2022-10-16T06:34:47;99790.66;;;16.97;86.17
49945;BME280;35838;49.134;9.212;2022-10-16T06:36:22;99790.78;;;16.90;87.04
49945;BME280;35838;49.134;9.212;2022-10-16T06:37:53;99788.09;;;16.94;87.07
49945;BME280;35838;49.134;9.212;2022-10-16T06:39:27;99789.84;;;16.95;87.39
49945;BME280;35838;49.134;9.212;2022-10-16T06:41:03;99791.50;;;16.97;86.23
49945;BME280;35838;49.134;9.212;2022-10-16T06:42:37;99786.09;;;17.02;84.94
49945;BME280;35838;49.134;9.212;2022-10-16T06:44:14;99787.75;;;17.04;85.01
49945;BME280;35838;49.134;9.212;2022-10-16T06:45:51;99792.16;;;17.04;85.74
49945;BME280;35838;49.134;9.212;2022-10-16T06:47:25;99799.97;;;17.05;86.56
49945;BME280;35838;49.134;9.212;2022-10-16T06:49:00;99811.28;;;17.06;87.92
49945;BME280;35838;49.134;9.212;2022-10-16T06:50:34;99821.91;;;17.03;87.89
49945;BME280;35838;49.134;9.212;2022-10-16T06:52:08;99822.22;;;16.92;86.71
49945;BME280;35838;49.134;9.212;2022-10-16T06:53:43;99821.31;;;16.93;86.21
49945;BME280;35838;49.134;9.212;2022-10-16T06:55:19;99821.13;;;16.99;86.00
49945;BME280;35838;49.134;9.212;2022-10-16T06:56:54;99819.31;;;17.01;86.24
49945;BME280;35838;49.134;9.212;2022-10-16T06:58:28;99814.88;;;17.03;86.54
49945;BME280;35838;49.134;9.212;2022-10-16T07:00:06;99825.19;;;17.10;86.11
49945;BME280;35838;49.134;9.212;2022-10-16T07:01:40;99832.09;;;17.12;85.86
49945;BME280;35838;49.134;9.212;2022-10-16T07:03:14;99830.66;;;17.02;85.22
49945;BME280;35838;49.134;9.212;2022-10-16T07:04:46;99832.63;;;16.95;85.27
49945;BME280;35838;49.134;9.212;2022-10-16T07:06:21;99846.09;;;16.83;85.88
49945;BME280;35838;49.134;9.212;2022-10-16T07:07:53;99847.00;;;16.80;86.54
49945;BME280;35838;49.134;9.212;2022-10-16T07:09:27;99845.50;;;16.73;87.43
49945;BME280;35838;49.134;9.212;2022-10-16T07:11:02;99844.50;;;16.77;88.29
49945;BME280;35838;49.134;9.212;2022-10-16T07:12:33;99850.72;;;16.73;89.09
49945;BME280;35838;49.134;9.212;2022-10-16T07:14:13;99847.13;;;16.77;89.27
49945;BME280;35838;49.134;9.212;2022-10-16T07:15:51;99849.41;;;16.59;89.47
49945;BME280;35838;49.134;9.212;2022-10-16T07:17:25;99852.94;;;16.58;90.15
49945;BME280;35838;49.134;9.212;2022-10-16T07:19:01;99853.19;;;16.49;89.82
49945;BME280;35838;49.134;9.212;2022-10-16T07:20:35;99861.00;;;16.51;90.36
49945;BME280;35838;49.134;9.212;2022-10-16T07:22:09;99859.88;;;16.59;90.26
49945;BME280;35838;49.134;9.212;2022-10-16T07:23:43;99856.16;;;16.67;89.62
49945;BME280;35838;49.134;9.212;2022-10-16T07:25:17;99853.41;;;16.71;89.84
49945;BME280;35838;49.134;9.212;2022-10-16T07:26:51;99852.44;;;16.74;89.60
49945;BME280;35838;49.134;9.212;2022-10-16T07:28:25;99853.91;;;16.84;89.69
49945;BME280;35838;49.134;9.212;2022-10-16T07:29:59;99850.22;;;16.90;89.62
49945;BME280;35838;49.134;9.212;2022-10-16T07:31:36;99851.97;;;16.89;89.75
49945;BME280;35838;49.134;9.212;2022-10-16T07:33:10;99851.84;;;16.96;89.43
49945;BME280;35838;49.134;9.212;2022-10-16T07:34:44;99853.44;;;17.00;89.13
49945;BME280;35838;49.134;9.212;2022-10-16T07:36:20;99856.06;;;17.00;88.38
49945;BME280;35838;49.134;9.212;2022-10-16T07:37:54;99854.19;;;17.05;87.56
49945;BME280;35838;49.134;9.212;2022-10-16T07:39:28;99858.75;;;16.98;86.56
49945;BME280;35838;49.134;9.212;2022-10-16T07:41:03;99859.59;;;16.99;86.12
49945;BME280;35838;49.134;9.212;2022-10-16T07:42:38;99854.13;;;17.06;86.15
49945;BME280;35838;49.134;9.212;2022-10-16T07:44:12;99857.44;;;17.12;85.76
49945;BME280;35838;49.134;9.212;2022-10-16T07:45:47;99865.91;;;17.20;85.38
49945;BME280;35838;49.134;9.212;2022-10-16T07:47:24;99869.16;;;17.28;85.71
49945;BME280;35838;49.134;9.212;2022-10-16T07:48:58;99865.38;;;17.37;84.32
49945;BME280;35838;49.134;9.212;2022-10-16T07:50:30;99859.88;;;17.45;83.03
49945;BME280;35838;49.134;9.212;2022-10-16T07:52:04;99866.78;;;17.47;82.95
49945;BME280;35838;49.134;9.212;2022-10-16T07:53:38;99867.47;;;17.52;82.71
49945;BME280;35838;49.134;9.212;2022-10-16T07:55:12;99873.47;;;17.58;81.82
49945;BME280;35838;49.134;9.212;2022-10-16T07:56:46;99876.94;;;17.58;81.78
49945;BME280;35838;49.134;9.212;2022-10-16T07:58:20;99878.59;;;17.61;82.08
49945;BME280;35838;49.134;9.212;2022-10-16T07:59:54;99879.31;;;17.66;81.93
49945;BME280;35838;49.134;9.212;2022-10-16T08:01:28;99881.88;;;17.67;81.51
49945;BME280;35838;49.134;9.212;2022-10-16T08:03:04;99884.44;;;17.69;80.99
49945;BME280;35838;49.134;9.212;2022-10-16T08:04:38;99878.19;;;17.73;81.40
49945;BME280;35838;49.134;9.212;2022-10-16T08:06:12;99883.53;;;17.70;80.67
49945;BME280;35838;49.134;9.212;2022-10-16T08:07:48;99887.81;;;17.73;81.25
49945;BME280;35838;49.134;9.212;2022-10-16T08:09:22;99893.19;;;17.68;81.27
49945;BME280;35838;49.134;9.212;2022-10-16T08:10:56;99898.16;;;17.77;80.99
49945;BME280;35838;49.134;9.212;2022-10-16T08:12:30;99893.66;;;17.81;80.92
49945;BME280;35838;49.134;9.212;2022-10-16T08:14:04;99894.38;;;17.86;80.53
49945;BME280;35838;49.134;9.212;2022-10-16T08:15:38;99896.03;;;17.89;80.63
49945;BME280;35838;49.134;9.212;2022-10-16T08:17:14;99897.84;;;17.86;80.41
49945;BME280;35838;49.134;9.212;2022-10-16T08:18:51;99900.31;;;17.91;80.95
49945;BME280;35838;49.134;9.212;2022-10-16T08:20:26;99900.00;;;18.00;79.88
49945;BME280;35838;49.134;9.212;2022-10-16T08:22:01;99906.72;;;18.09;79.43
49945;BME280;35838;49.134;9.212;2022-10-16T08:23:35;99909.13;;;18.15;79.15
49945;BME280;35838;49.134;9.212;2022-10-16T08:25:09;99909.66;;;18.00;79.52